Sunday, December 17, 2017, 2:33 PM EST
Back to Local

KSEG, Selinsgrove Penn Valley Airport

Location: Selinsgrove, PA, United States Lat: 40.817
Local Time: 2:33 PM EST (19:33 GMT) Lon: -76.867
Time Zone: US/Eastern Elev: 449 ft

Show me the last for .
Show Decoded

2017-12-17 13:53 METAR KSEG 171853Z AUTO 00000KT 10SM CLR 02/M02 A3020 RMK AO2 SLP233 T00221022 =
2017-12-17 12:53 METAR KSEG 171753Z AUTO 00000KT 10SM CLR 02/M03 A3022 RMK AO2 SLP237 T00171028
                 10017 21006 58014 =
2017-12-17 11:53 METAR KSEG 171653Z AUTO 00000KT 10SM CLR 02/M03 A3026 RMK AO2 SLP252 T00171028 =
2017-12-17 10:53 METAR KSEG 171553Z AUTO 07004KT 10SM CLR 01/M03 A3027 RMK AO2 SLP256 T00111028 =
2017-12-17 09:53 METAR KSEG 171453Z AUTO 05004KT 10SM CLR 01/M03 A3026 RMK AO2 SLP251 T00061028
                 50004 =
2017-12-17 08:53 METAR KSEG 171353Z AUTO 00000KT 9SM BKN050 00/M02 A3026 RMK AO2 SLP252 T00001022
                 =
2017-12-17 07:53 METAR KSEG 171253Z AUTO 34003KT 9SM OVC050 M01/M03 A3025 RMK AO2 SLP247
                 T10061028 =
2017-12-17 06:53 METAR KSEG 171153Z AUTO 00000KT 10SM OVC050 00/M02 A3024 RMK AO2 SLP246
                 T00001022 10006 21011 53009 =
2017-12-17 05:53 METAR KSEG 171053Z AUTO 00000KT 10SM OVC050 00/M02 A3023 RMK AO2 SLP240
                 T00001022 =
2017-12-17 04:53 METAR KSEG 170953Z AUTO 32003KT 8SM OVC050 M01/M02 A3021 RMK AO2 SLP235
                 T10061022 =
2017-12-17 03:53 METAR KSEG 170853Z AUTO 00000KT 8SM OVC055 00/M02 A3022 RMK AO2 SLP236 T00001017
                 50010 =
2017-12-17 02:53 METAR KSEG 170753Z AUTO 00000KT 8SM OVC055 00/M02 A3022 RMK AO2 SLP238 T00001017
                 =
2017-12-17 01:53 METAR KSEG 170653Z AUTO 00000KT 8SM OVC055 00/M02 A3020 RMK AO2 SLP232 T00001017
                 =
2017-12-17 00:53 METAR KSEG 170553Z AUTO 00000KT 7SM OVC055 M01/M02 A3019 RMK AO2 SLP227
                 T10061017 10039 21011 51012 =
2017-12-16 23:53 METAR KSEG 170453Z AUTO 00000KT 9SM OVC055 01/M02 A3018 RMK AO2 SLP223 T00061017
                 400441111 =
2017-12-16 22:53 METAR KSEG 170353Z AUTO VRB03KT 8SM OVC050 01/M01 A3016 RMK AO2 SLP219 T00061011
                 =
2017-12-16 21:53 METAR KSEG 170253Z AUTO 00000KT 8SM OVC050 01/M01 A3015 RMK AO2 SLP215 T00061011
                 51010 =
2017-12-16 20:53 METAR KSEG 170153Z AUTO 00000KT 10SM OVC046 01/M01 A3015 RMK AO2 SLP213
                 T00111011 =
2017-12-16 19:53 METAR KSEG 170053Z AUTO 00000KT 10SM OVC042 03/M02 A3014 RMK AO2 SLP212
                 T00331022 =
2017-12-16 18:53 METAR KSEG 162353Z AUTO 00000KT 10SM OVC038 02/M02 A3012 RMK AO2 SLP204
                 T00171017 10044 20011 53034 =
2017-12-16 17:53 METAR KSEG 162253Z AUTO 00000KT 10SM OVC040 03/M02 A3008 RMK AO2 SLP192
                 T00281022 =
2017-12-16 16:53 METAR KSEG 162153Z AUTO 29003KT 10SM OVC042 04/M03 A3005 RMK AO2 SLP180
                 T00391028 =
2017-12-16 15:53 METAR KSEG 162053Z AUTO 00000KT 10SM OVC046 04/M03 A3002 RMK AO2 SLP169
                 T00441028 53011 =
2017-12-16 14:53 METAR KSEG 161953Z AUTO 26005KT 10SM OVC048 04/M03 A3000 RMK AO2 SLP163
                 T00441033 =

Support USWX by starting your Amazon purchase here.